sensor_id;sensor_type;location;lat;lon;timestamp;temperature;humidity
72320;SHT30;60269;52.502;16.732;2022-09-12T00:03:06;10.68;97.92
72320;SHT30;60269;52.502;16.732;2022-09-12T00:07:05;10.57;97.95
72320;SHT30;60269;52.502;16.732;2022-09-12T00:10:44;10.55;98.13
72320;SHT30;60269;52.502;16.732;2022-09-12T00:14:42;10.45;98.12
72320;SHT30;60269;52.502;16.732;2022-09-12T00:18:42;10.45;98.51
72320;SHT30;60269;52.502;16.732;2022-09-12T00:22:22;10.43;98.56
72320;SHT30;60269;52.502;16.732;2022-09-12T00:26:14;10.43;98.59
72320;SHT30;60269;52.502;16.732;2022-09-12T00:29:52;10.44;98.72
72320;SHT30;60269;52.502;16.732;2022-09-12T00:33:52;10.36;98.75
72320;SHT30;60269;52.502;16.732;2022-09-12T00:37:33;10.33;98.63
72320;SHT30;60269;52.502;16.732;2022-09-12T00:41:38;10.20;98.72
72320;SHT30;60269;52.502;16.732;2022-09-12T00:45:27;10.13;98.79
72320;SHT30;60269;52.502;16.732;2022-09-12T00:49:24;10.18;98.86
72320;SHT30;60269;52.502;16.732;2022-09-12T00:53:11;10.18;98.84
72320;SHT30;60269;52.502;16.732;2022-09-12T00:57:05;10.23;98.81
72320;SHT30;60269;52.502;16.732;2022-09-12T01:00:44;10.27;98.89
72320;SHT30;60269;52.502;16.732;2022-09-12T01:04:37;10.30;99.03
72320;SHT30;60269;52.502;16.732;2022-09-12T01:08:25;10.38;99.11
72320;SHT30;60269;52.502;16.732;2022-09-12T01:12:17;10.33;99.12
72320;SHT30;60269;52.502;16.732;2022-09-12T01:15:59;10.32;99.20
72320;SHT30;60269;52.502;16.732;2022-09-12T01:20:36;10.29;99.29
72320;SHT30;60269;52.502;16.732;2022-09-12T01:29:10;10.25;99.33
72320;SHT30;60269;52.502;16.732;2022-09-12T01:37:17;10.25;99.52
72320;SHT30;60269;52.502;16.732;2022-09-12T01:49:19;10.12;99.51
72320;SHT30;60269;52.502;16.732;2022-09-12T01:53:13;10.10;99.57
72320;SHT30;60269;52.502;16.732;2022-09-12T01:56:55;10.06;99.58
72320;SHT30;60269;52.502;16.732;2022-09-12T02:01:20;10.07;99.66
72320;SHT30;60269;52.502;16.732;2022-09-12T02:05:32;9.99;99.76
72320;SHT30;60269;52.502;16.732;2022-09-12T02:10:33;10.00;99.67
72320;SHT30;60269;52.502;16.732;2022-09-12T02:13:54;10.03;99.73
72320;SHT30;60269;52.502;16.732;2022-09-12T02:17:49;10.09;99.84
72320;SHT30;60269;52.502;16.732;2022-09-12T02:21:37;10.05;99.79
72320;SHT30;60269;52.502;16.732;2022-09-12T02:25:31;9.97;99.89
72320;SHT30;60269;52.502;16.732;2022-09-12T02:29:10;9.89;99.77
72320;SHT30;60269;52.502;16.732;2022-09-12T02:33:26;9.85;99.88
72320;SHT30;60269;52.502;16.732;2022-09-12T02:37:26;9.90;99.95
72320;SHT30;60269;52.502;16.732;2022-09-12T02:41:22;9.82;99.74
72320;SHT30;60269;52.502;16.732;2022-09-12T02:45:01;9.89;99.93
72320;SHT30;60269;52.502;16.732;2022-09-12T02:48:54;9.99;99.97
72320;SHT30;60269;52.502;16.732;2022-09-12T02:52:41;9.90;99.80
72320;SHT30;60269;52.502;16.732;2022-09-12T02:56:34;9.96;99.99
72320;SHT30;60269;52.502;16.732;2022-09-12T03:00:12;9.97;99.91
72320;SHT30;60269;52.502;16.732;2022-09-12T03:04:29;10.05;99.93
72320;SHT30;60269;52.502;16.732;2022-09-12T03:08:43;10.23;99.90
72320;SHT30;60269;52.502;16.732;2022-09-12T03:21:02;10.27;99.88
72320;SHT30;60269;52.502;16.732;2022-09-12T03:29:00;10.57;99.67
72320;SHT30;60269;52.502;16.732;2022-09-12T03:32:51;10.71;99.62
72320;SHT30;60269;52.502;16.732;2022-09-12T03:36:36;10.75;99.57
72320;SHT30;60269;52.502;16.732;2022-09-12T03:40:23;10.82;99.41
72320;SHT30;60269;52.502;16.732;2022-09-12T03:44:15;10.83;99.41
72320;SHT30;60269;52.502;16.732;2022-09-12T03:48:00;10.92;99.36
72320;SHT30;60269;52.502;16.732;2022-09-12T03:51:44;10.92;99.27
72320;SHT30;60269;52.502;16.732;2022-09-12T03:55:30;10.93;99.39
72320;SHT30;60269;52.502;16.732;2022-09-12T03:59:21;10.95;99.38
72320;SHT30;60269;52.502;16.732;2022-09-12T04:03:07;11.01;99.38
72320;SHT30;60269;52.502;16.732;2022-09-12T04:06:52;10.98;99.36
72320;SHT30;60269;52.502;16.732;2022-09-12T04:10:38;11.08;99.53
72320;SHT30;60269;52.502;16.732;2022-09-12T04:14:29;11.18;99.25
72320;SHT30;60269;52.502;16.732;2022-09-12T04:18:08;11.16;99.19
72320;SHT30;60269;52.502;16.732;2022-09-12T04:22:06;11.20;99.14
72320;SHT30;60269;52.502;16.732;2022-09-12T04:25:53;11.19;99.17
72320;SHT30;60269;52.502;16.732;2022-09-12T04:29:52;11.33;99.09
72320;SHT30;60269;52.502;16.732;2022-09-12T04:33:33;11.41;98.90
72320;SHT30;60269;52.502;16.732;2022-09-12T04:37:24;11.39;99.05
72320;SHT30;60269;52.502;16.732;2022-09-12T04:45:15;11.60;99.18
72320;SHT30;60269;52.502;16.732;2022-09-12T04:48:54;11.68;99.21
72320;SHT30;60269;52.502;16.732;2022-09-12T04:52:53;11.70;99.24
72320;SHT30;60269;52.502;16.732;2022-09-12T04:56:35;11.80;99.17
72320;SHT30;60269;52.502;16.732;2022-09-12T05:00:26;11.84;99.15
72320;SHT30;60269;52.502;16.732;2022-09-12T05:04:06;11.91;99.02
72320;SHT30;60269;52.502;16.732;2022-09-12T05:08:04;11.94;99.08
72320;SHT30;60269;52.502;16.732;2022-09-12T05:12:04;12.02;99.06
72320;SHT30;60269;52.502;16.732;2022-09-12T05:15:43;12.04;99.10
72320;SHT30;60269;52.502;16.732;2022-09-12T05:19:42;12.09;98.92
72320;SHT30;60269;52.502;16.732;2022-09-12T05:23:41;12.15;98.86
72320;SHT30;60269;52.502;16.732;2022-09-12T05:27:39;12.14;98.96
72320;SHT30;60269;52.502;16.732;2022-09-12T05:31:24;12.24;98.88
72320;SHT30;60269;52.502;16.732;2022-09-12T05:35:22;12.28;98.97
72320;SHT30;60269;52.502;16.732;2022-09-12T05:39:21;12.28;98.76
72320;SHT30;60269;52.502;16.732;2022-09-12T05:43:00;12.33;98.70
72320;SHT30;60269;52.502;16.732;2022-09-12T05:46:51;12.43;98.61
72320;SHT30;60269;52.502;16.732;2022-09-12T05:50:30;12.52;98.37
72320;SHT30;60269;52.502;16.732;2022-09-12T05:54:21;12.64;98.08
72320;SHT30;60269;52.502;16.732;2022-09-12T05:58:02;12.80;98.03
72320;SHT30;60269;52.502;16.732;2022-09-12T06:01:53;12.88;97.60
72320;SHT30;60269;52.502;16.732;2022-09-12T06:05:39;12.86;97.60
72320;SHT30;60269;52.502;16.732;2022-09-12T06:09:27;12.88;97.48
72320;SHT30;60269;52.502;16.732;2022-09-12T06:13:13;12.98;97.41
72320;SHT30;60269;52.502;16.732;2022-09-12T06:16:58;13.07;97.38
72320;SHT30;60269;52.502;16.732;2022-09-12T06:20:43;13.19;97.15
72320;SHT30;60269;52.502;16.732;2022-09-12T06:24:34;13.21;96.90
72320;SHT30;60269;52.502;16.732;2022-09-12T06:28:35;13.28;96.73
72320;SHT30;60269;52.502;16.732;2022-09-12T06:32:35;13.31;96.64
72320;SHT30;60269;52.502;16.732;2022-09-12T06:36:26;13.34;96.69
72320;SHT30;60269;52.502;16.732;2022-09-12T06:40:24;13.36;96.30
72320;SHT30;60269;52.502;16.732;2022-09-12T06:44:04;13.41;96.29
72320;SHT30;60269;52.502;16.732;2022-09-12T06:47:56;13.41;96.28
72320;SHT30;60269;52.502;16.732;2022-09-12T06:51:35;13.53;95.82
72320;SHT30;60269;52.502;16.732;2022-09-12T06:55:34;13.67;95.85
72320;SHT30;60269;52.502;16.732;2022-09-12T06:59:12;13.82;95.27
72320;SHT30;60269;52.502;16.732;2022-09-12T07:03:04;13.83;94.96
72320;SHT30;60269;52.502;16.732;2022-09-12T07:06:52;13.93;95.36
72320;SHT30;60269;52.502;16.732;2022-09-12T07:10:44;14.00;94.70
72320;SHT30;60269;52.502;16.732;2022-09-12T07:14:30;14.03;94.60
72320;SHT30;60269;52.502;16.732;2022-09-12T07:18:14;14.42;93.87
72320;SHT30;60269;52.502;16.732;2022-09-12T07:22:00;14.59;92.77
72320;SHT30;60269;52.502;16.732;2022-09-12T07:25:56;14.72;92.10
72320;SHT30;60269;52.502;16.732;2022-09-12T07:29:42;15.03;91.44
72320;SHT30;60269;52.502;16.732;2022-09-12T07:33:27;15.26;90.64
72320;SHT30;60269;52.502;16.732;2022-09-12T07:37:12;15.14;92.05
72320;SHT30;60269;52.502;16.732;2022-09-12T07:41:18;15.17;92.23
72320;SHT30;60269;52.502;16.732;2022-09-12T07:45:05;15.11;90.92
72320;SHT30;60269;52.502;16.732;2022-09-12T07:48:52;15.17;90.88
72320;SHT30;60269;52.502;16.732;2022-09-12T07:52:37;15.04;89.53
72320;SHT30;60269;52.502;16.732;2022-09-12T07:56:28;15.19;87.99
72320;SHT30;60269;52.502;16.732;2022-09-12T08:00:17;15.31;88.45
72320;SHT30;60269;52.502;16.732;2022-09-12T08:04:02;15.62;88.37
72320;SHT30;60269;52.502;16.732;2022-09-12T08:07:49;15.78;87.22
72320;SHT30;60269;52.502;16.732;2022-09-12T08:11:40;16.17;85.52
72320;SHT30;60269;52.502;16.732;2022-09-12T08:15:26;16.23;84.17
72320;SHT30;60269;52.502;16.732;2022-09-12T08:19:17;16.37;84.09
72320;SHT30;60269;52.502;16.732;2022-09-12T08:22:56;16.54;83.44
72320;SHT30;60269;52.502;16.732;2022-09-12T08:26:54;16.63;82.49
72320;SHT30;60269;52.502;16.732;2022-09-12T08:30:54;16.84;81.89
72320;SHT30;60269;52.502;16.732;2022-09-12T08:34:56;17.19;79.88
72320;SHT30;60269;52.502;16.732;2022-09-12T08:38:39;17.74;78.54
72320;SHT30;60269;52.502;16.732;2022-09-12T08:42:55;17.87;78.18
72320;SHT30;60269;52.502;16.732;2022-09-12T08:46:46;17.83;77.11
72320;SHT30;60269;52.502;16.732;2022-09-12T08:50:47;18.86;73.13
72320;SHT30;60269;52.502;16.732;2022-09-12T08:54:28;18.80;70.33
72320;SHT30;60269;52.502;16.732;2022-09-12T08:58:21;18.49;71.61
72320;SHT30;60269;52.502;16.732;2022-09-12T09:02:01;18.56;72.59
72320;SHT30;60269;52.502;16.732;2022-09-12T09:10:27;19.61;66.88
72320;SHT30;60269;52.502;16.732;2022-09-12T09:14:21;20.05;65.52
72320;SHT30;60269;52.502;16.732;2022-09-12T09:18:31;20.67;63.56
72320;SHT30;60269;52.502;16.732;2022-09-12T09:22:48;20.58;63.95
72320;SHT30;60269;52.502;16.732;2022-09-12T09:26:50;20.12;64.96
72320;SHT30;60269;52.502;16.732;2022-09-12T09:31:07;21.03;63.27
72320;SHT30;60269;52.502;16.732;2022-09-12T09:34:56;20.00;65.04
72320;SHT30;60269;52.502;16.732;2022-09-12T09:43:23;19.35;67.88
72320;SHT30;60269;52.502;16.732;2022-09-12T09:47:10;19.79;64.12
72320;SHT30;60269;52.502;16.732;2022-09-12T09:50:58;20.14;63.14
72320;SHT30;60269;52.502;16.732;2022-09-12T09:54:57;20.02;64.84
72320;SHT30;60269;52.502;16.732;2022-09-12T09:58:43;19.76;64.31
72320;SHT30;60269;52.502;16.732;2022-09-12T10:02:34;20.88;59.51
72320;SHT30;60269;52.502;16.732;2022-09-12T10:10:15;22.04;55.78
72320;SHT30;60269;52.502;16.732;2022-09-12T10:14:00;21.81;56.97
72320;SHT30;60269;52.502;16.732;2022-09-12T10:17:47;21.70;58.71
72320;SHT30;60269;52.502;16.732;2022-09-12T10:21:44;21.43;59.10
72320;SHT30;60269;52.502;16.732;2022-09-12T10:25:38;20.87;61.10
72320;SHT30;60269;52.502;16.732;2022-09-12T10:29:26;20.72;59.09
72320;SHT30;60269;52.502;16.732;2022-09-12T10:33:12;21.06;56.82
72320;SHT30;60269;52.502;16.732;2022-09-12T10:37:00;21.68;55.76
72320;SHT30;60269;52.502;16.732;2022-09-12T10:41:09;22.99;53.38
72320;SHT30;60269;52.502;16.732;2022-09-12T10:44:55;23.55;50.52
72320;SHT30;60269;52.502;16.732;2022-09-12T10:48:43;24.00;49.41
72320;SHT30;60269;52.502;16.732;2022-09-12T10:52:29;24.31;46.84
72320;SHT30;60269;52.502;16.732;2022-09-12T11:00:35;23.44;48.84
72320;SHT30;60269;52.502;16.732;2022-09-12T11:04:46;21.74;54.75
72320;SHT30;60269;52.502;16.732;2022-09-12T11:29:32;22.24;51.29
72320;SHT30;60269;52.502;16.732;2022-09-12T11:33:41;22.19;52.60
72320;SHT30;60269;52.502;16.732;2022-09-12T11:41:25;24.16;45.82
72320;SHT30;60269;52.502;16.732;2022-09-12T11:45:25;25.05;44.04
72320;SHT30;60269;52.502;16.732;2022-09-12T11:53:10;25.46;42.79
72320;SHT30;60269;52.502;16.732;2022-09-12T11:57:24;24.24;42.76
72320;SHT30;60269;52.502;16.732;2022-09-12T12:01:31;24.33;43.44
72320;SHT30;60269;52.502;16.732;2022-09-12T12:09:49;25.32;42.39
72320;SHT30;60269;52.502;16.732;2022-09-12T12:13:50;26.24;39.42
72320;SHT30;60269;52.502;16.732;2022-09-12T12:17:37;26.59;38.28
72320;SHT30;60269;52.502;16.732;2022-09-12T12:21:45;26.75;37.12
72320;SHT30;60269;52.502;16.732;2022-09-12T12:29:43;27.82;35.51
72320;SHT30;60269;52.502;16.732;2022-09-12T12:49:17;22.53;49.82
72320;SHT30;60269;52.502;16.732;2022-09-12T12:57:14;21.16;53.76
72320;SHT30;60269;52.502;16.732;2022-09-12T13:01:13;20.70;59.71
72320;SHT30;60269;52.502;16.732;2022-09-12T13:04:53;20.33;57.99
72320;SHT30;60269;52.502;16.732;2022-09-12T13:08:59;20.23;58.97
72320;SHT30;60269;52.502;16.732;2022-09-12T13:12:44;20.52;56.53
72320;SHT30;60269;52.502;16.732;2022-09-12T13:16:39;20.74;55.73
72320;SHT30;60269;52.502;16.732;2022-09-12T13:20:31;21.03;55.54
72320;SHT30;60269;52.502;16.732;2022-09-12T13:24:31;21.43;54.36
72320;SHT30;60269;52.502;16.732;2022-09-12T13:32:09;21.76;53.65
72320;SHT30;60269;52.502;16.732;2022-09-12T13:40:38;21.83;54.03
72320;SHT30;60269;52.502;16.732;2022-09-12T13:44:22;21.50;55.33
72320;SHT30;60269;52.502;16.732;2022-09-12T13:48:20;21.33;55.04
72320;SHT30;60269;52.502;16.732;2022-09-12T13:52:16;21.08;56.23
72320;SHT30;60269;52.502;16.732;2022-09-12T13:56:14;21.93;54.36
72320;SHT30;60269;52.502;16.732;2022-09-12T14:00:10;23.59;50.10
72320;SHT30;60269;52.502;16.732;2022-09-12T14:04:17;25.18;44.78
72320;SHT30;60269;52.502;16.732;2022-09-12T14:08:22;25.49;43.84
72320;SHT30;60269;52.502;16.732;2022-09-12T14:12:24;26.29;40.98
72320;SHT30;60269;52.502;16.732;2022-09-12T14:16:09;26.55;41.48
72320;SHT30;60269;52.502;16.732;2022-09-12T14:19:54;26.53;41.43
72320;SHT30;60269;52.502;16.732;2022-09-12T14:23:44;26.57;41.67
72320;SHT30;60269;52.502;16.732;2022-09-12T14:27:42;24.26;45.32
72320;SHT30;60269;52.502;16.732;2022-09-12T14:31:37;23.07;48.46
72320;SHT30;60269;52.502;16.732;2022-09-12T14:35:22;22.39;50.62
72320;SHT30;60269;52.502;16.732;2022-09-12T14:47:13;21.30;53.67
72320;SHT30;60269;52.502;16.732;2022-09-12T14:51:20;22.42;52.46
72320;SHT30;60269;52.502;16.732;2022-09-12T14:55:18;21.30;55.68
72320;SHT30;60269;52.502;16.732;2022-09-12T15:03:29;20.06;61.13
72320;SHT30;60269;52.502;16.732;2022-09-12T15:07:31;20.19;62.54
72320;SHT30;60269;52.502;16.732;2022-09-12T15:11:10;20.43;62.76
72320;SHT30;60269;52.502;16.732;2022-09-12T15:15:18;19.64;65.73
72320;SHT30;60269;52.502;16.732;2022-09-12T15:18:56;19.52;65.86
72320;SHT30;60269;52.502;16.732;2022-09-12T15:22:55;18.66;68.86
72320;SHT30;60269;52.502;16.732;2022-09-12T15:26:54;18.37;70.38
72320;SHT30;60269;52.502;16.732;2022-09-12T15:30:32;18.05;72.23
72320;SHT30;60269;52.502;16.732;2022-09-12T15:34:31;17.81;72.98
72320;SHT30;60269;52.502;16.732;2022-09-12T15:38:09;17.94;73.19
72320;SHT30;60269;52.502;16.732;2022-09-12T15:42:01;18.10;72.31
72320;SHT30;60269;52.502;16.732;2022-09-12T15:45:43;17.93;73.20
72320;SHT30;60269;52.502;16.732;2022-09-12T15:49:44;17.70;74.11
72320;SHT30;60269;52.502;16.732;2022-09-12T15:53:22;18.11;73.24
72320;SHT30;60269;52.502;16.732;2022-09-12T15:57:15;18.55;71.31
72320;SHT30;60269;52.502;16.732;2022-09-12T16:01:00;18.82;69.95
72320;SHT30;60269;52.502;16.732;2022-09-12T16:04:52;18.90;69.85
72320;SHT30;60269;52.502;16.732;2022-09-12T16:08:38;18.92;70.00
72320;SHT30;60269;52.502;16.732;2022-09-12T16:12:23;18.86;70.79
72320;SHT30;60269;52.502;16.732;2022-09-12T16:16:08;18.99;70.73
72320;SHT30;60269;52.502;16.732;2022-09-12T16:20:00;18.85;70.93
72320;SHT30;60269;52.502;16.732;2022-09-12T16:23:46;18.96;71.11
72320;SHT30;60269;52.502;16.732;2022-09-12T16:27:32;18.60;72.49
72320;SHT30;60269;52.502;16.732;2022-09-12T16:31:18;18.24;73.80
72320;SHT30;60269;52.502;16.732;2022-09-12T16:35:10;17.60;76.57
72320;SHT30;60269;52.502;16.732;2022-09-12T16:38:50;17.25;78.30
72320;SHT30;60269;52.502;16.732;2022-09-12T16:42:44;16.92;79.11
72320;SHT30;60269;52.502;16.732;2022-09-12T16:46:29;16.71;80.01
72320;SHT30;60269;52.502;16.732;2022-09-12T16:50:21;16.46;81.30
72320;SHT30;60269;52.502;16.732;2022-09-12T16:54:06;16.34;82.14
72320;SHT30;60269;52.502;16.732;2022-09-12T16:57:52;16.15;83.14
72320;SHT30;60269;52.502;16.732;2022-09-12T17:01:38;15.95;84.20
72320;SHT30;60269;52.502;16.732;2022-09-12T17:05:30;15.88;84.73
72320;SHT30;60269;52.502;16.732;2022-09-12T17:09:08;15.78;84.99
72320;SHT30;60269;52.502;16.732;2022-09-12T17:13:02;15.75;85.39
72320;SHT30;60269;52.502;16.732;2022-09-12T17:16:48;15.61;86.38
72320;SHT30;60269;52.502;16.732;2022-09-12T17:20:47;15.48;86.94
72320;SHT30;60269;52.502;16.732;2022-09-12T17:24:25;15.43;86.96
72320;SHT30;60269;52.502;16.732;2022-09-12T17:28:24;15.36;87.05
72320;SHT30;60269;52.502;16.732;2022-09-12T17:32:23;15.23;87.05
72320;SHT30;60269;52.502;16.732;2022-09-12T17:36:07;15.06;87.96
72320;SHT30;60269;52.502;16.732;2022-09-12T17:39:59;14.78;88.70
72320;SHT30;60269;52.502;16.732;2022-09-12T17:43:37;14.51;90.08
72320;SHT30;60269;52.502;16.732;2022-09-12T17:47:30;14.37;90.99
72320;SHT30;60269;52.502;16.732;2022-09-12T17:51:10;14.21;91.90
72320;SHT30;60269;52.502;16.732;2022-09-12T17:55:03;14.04;92.44
72320;SHT30;60269;52.502;16.732;2022-09-12T17:58:41;13.93;92.76
72320;SHT30;60269;52.502;16.732;2022-09-12T18:02:40;13.80;93.24
72320;SHT30;60269;52.502;16.732;2022-09-12T18:06:27;13.73;93.73
72320;SHT30;60269;52.502;16.732;2022-09-12T18:10:19;13.74;93.70
72320;SHT30;60269;52.502;16.732;2022-09-12T18:13:58;13.73;93.59
72320;SHT30;60269;52.502;16.732;2022-09-12T18:17:52;13.63;93.52
72320;SHT30;60269;52.502;16.732;2022-09-12T18:21:37;13.73;93.64
72320;SHT30;60269;52.502;16.732;2022-09-12T18:25:25;13.74;93.40
72320;SHT30;60269;52.502;16.732;2022-09-12T18:29:11;13.65;93.80
72320;SHT30;60269;52.502;16.732;2022-09-12T18:32:58;13.53;94.24
72320;SHT30;60269;52.502;16.732;2022-09-12T18:36:45;13.41;94.59
72320;SHT30;60269;52.502;16.732;2022-09-12T18:40:39;13.21;95.32
72320;SHT30;60269;52.502;16.732;2022-09-12T18:44:24;13.19;95.22
72320;SHT30;60269;52.502;16.732;2022-09-12T18:48:09;12.91;95.93
72320;SHT30;60269;52.502;16.732;2022-09-12T18:51:54;12.90;96.35
72320;SHT30;60269;52.502;16.732;2022-09-12T18:55:46;12.79;96.28
72320;SHT30;60269;52.502;16.732;2022-09-12T18:59:33;12.70;97.16
72320;SHT30;60269;52.502;16.732;2022-09-12T19:03:18;12.55;97.96
72320;SHT30;60269;52.502;16.732;2022-09-12T19:07:03;12.39;98.34
72320;SHT30;60269;52.502;16.732;2022-09-12T19:10:55;12.25;98.83
72320;SHT30;60269;52.502;16.732;2022-09-12T19:14:40;12.01;98.64
72320;SHT30;60269;52.502;16.732;2022-09-12T19:18:32;11.87;98.86
72320;SHT30;60269;52.502;16.732;2022-09-12T19:22:10;11.85;99.25
72320;SHT30;60269;52.502;16.732;2022-09-12T19:26:10;11.97;99.51
72320;SHT30;60269;52.502;16.732;2022-09-12T19:29:49;11.88;99.65
72320;SHT30;60269;52.502;16.732;2022-09-12T19:33:41;11.97;99.87
72320;SHT30;60269;52.502;16.732;2022-09-12T19:37:19;12.05;99.90
72320;SHT30;60269;52.502;16.732;2022-09-12T19:41:18;12.05;99.85
72320;SHT30;60269;52.502;16.732;2022-09-12T19:44:57;12.12;99.48
72320;SHT30;60269;52.502;16.732;2022-09-12T19:48:49;12.26;98.98
72320;SHT30;60269;52.502;16.732;2022-09-12T19:52:28;12.22;98.75
72320;SHT30;60269;52.502;16.732;2022-09-12T19:56:27;11.98;98.93
72320;SHT30;60269;52.502;16.732;2022-09-12T20:00:06;11.60;98.93
72320;SHT30;60269;52.502;16.732;2022-09-12T20:03:58;11.71;99.39
72320;SHT30;60269;52.502;16.732;2022-09-12T20:07:43;11.85;99.23
72320;SHT30;60269;52.502;16.732;2022-09-12T20:11:35;11.82;99.60
72320;SHT30;60269;52.502;16.732;2022-09-12T20:15:20;11.60;99.70
72320;SHT30;60269;52.502;16.732;2022-09-12T20:19:05;11.40;99.99
72320;SHT30;60269;52.502;16.732;2022-09-12T20:22:52;11.59;99.99
72320;SHT30;60269;52.502;16.732;2022-09-12T20:26:44;11.60;99.99
72320;SHT30;60269;52.502;16.732;2022-09-12T20:30:30;11.26;99.99
72320;SHT30;60269;52.502;16.732;2022-09-12T20:34:17;11.05;99.99
72320;SHT30;60269;52.502;16.732;2022-09-12T20:38:03;11.01;99.99
72320;SHT30;60269;52.502;16.732;2022-09-12T20:41:55;10.99;99.99
72320;SHT30;60269;52.502;16.732;2022-09-12T20:45:40;11.09;99.99
72320;SHT30;60269;52.502;16.732;2022-09-12T20:49:25;11.27;99.99
72320;SHT30;60269;52.502;16.732;2022-09-12T20:53:10;11.41;99.99
72320;SHT30;60269;52.502;16.732;2022-09-12T20:57:02;11.32;99.99
72320;SHT30;60269;52.502;16.732;2022-09-12T21:00:48;11.13;99.99
72320;SHT30;60269;52.502;16.732;2022-09-12T21:04:33;10.99;99.99
72320;SHT30;60269;52.502;16.732;2022-09-12T21:08:18;11.06;99.99
72320;SHT30;60269;52.502;16.732;2022-09-12T21:12:17;11.19;99.99
72320;SHT30;60269;52.502;16.732;2022-09-12T21:19:46;11.29;99.99
72320;SHT30;60269;52.502;16.732;2022-09-12T21:23:31;11.19;99.99
72320;SHT30;60269;52.502;16.732;2022-09-12T21:27:10;11.22;99.99
72320;SHT30;60269;52.502;16.732;2022-09-12T21:31:09;11.20;99.99
72320;SHT30;60269;52.502;16.732;2022-09-12T21:35:08;11.39;99.99
72320;SHT30;60269;52.502;16.732;2022-09-12T21:38:46;11.50;99.99
72320;SHT30;60269;52.502;16.732;2022-09-12T21:42:47;11.68;99.99
72320;SHT30;60269;52.502;16.732;2022-09-12T21:46:25;11.66;99.99
72320;SHT30;60269;52.502;16.732;2022-09-12T21:50:24;11.53;99.99
72320;SHT30;60269;52.502;16.732;2022-09-12T21:54:23;11.57;99.99
72320;SHT30;60269;52.502;16.732;2022-09-12T21:58:01;11.64;99.87
72320;SHT30;60269;52.502;16.732;2022-09-12T22:02:00;11.68;99.65
72320;SHT30;60269;52.502;16.732;2022-09-12T22:06:01;11.71;99.39
72320;SHT30;60269;52.502;16.732;2022-09-12T22:09:46;11.85;99.14
72320;SHT30;60269;52.502;16.732;2022-09-12T22:13:40;11.78;99.01
72320;SHT30;60269;52.502;16.732;2022-09-12T22:17:26;11.63;99.05
72320;SHT30;60269;52.502;16.732;2022-09-12T22:21:16;11.63;99.06
72320;SHT30;60269;52.502;16.732;2022-09-12T22:25:01;11.59;99.25
72320;SHT30;60269;52.502;16.732;2022-09-12T22:28:48;11.29;99.46
72320;SHT30;60269;52.502;16.732;2022-09-12T22:32:35;11.27;99.94
72320;SHT30;60269;52.502;16.732;2022-09-12T22:36:27;11.46;99.98
72320;SHT30;60269;52.502;16.732;2022-09-12T22:40:09;11.15;99.96
72320;SHT30;60269;52.502;16.732;2022-09-12T22:44:01;11.02;99.99
72320;SHT30;60269;52.502;16.732;2022-09-12T22:47:46;11.15;99.99
72320;SHT30;60269;52.502;16.732;2022-09-12T22:51:39;10.93;99.99
72320;SHT30;60269;52.502;16.732;2022-09-12T22:55:17;10.57;99.99
72320;SHT30;60269;52.502;16.732;2022-09-12T22:59:09;10.32;99.99
72320;SHT30;60269;52.502;16.732;2022-09-12T23:02:54;10.40;99.99
72320;SHT30;60269;52.502;16.732;2022-09-12T23:06:46;10.45;99.99
72320;SHT30;60269;52.502;16.732;2022-09-12T23:10:34;10.18;99.99
72320;SHT30;60269;52.502;16.732;2022-09-12T23:14:21;9.89;99.99
72320;SHT30;60269;52.502;16.732;2022-09-12T23:18:06;9.78;99.99
72320;SHT30;60269;52.502;16.732;2022-09-12T23:21:58;9.90;99.99
72320;SHT30;60269;52.502;16.732;2022-09-12T23:25:43;9.90;99.99
72320;SHT30;60269;52.502;16.732;2022-09-12T23:29:30;9.89;99.99
72320;SHT30;60269;52.502;16.732;2022-09-12T23:33:18;9.87;99.99
72320;SHT30;60269;52.502;16.732;2022-09-12T23:37:11;10.03;99.99
72320;SHT30;60269;52.502;16.732;2022-09-12T23:40:57;10.05;99.99
72320;SHT30;60269;52.502;16.732;2022-09-12T23:44:42;10.10;99.99
72320;SHT30;60269;52.502;16.732;2022-09-12T23:48:27;10.05;99.99
72320;SHT30;60269;52.502;16.732;2022-09-12T23:52:19;9.89;99.99
72320;SHT30;60269;52.502;16.732;2022-09-12T23:56:04;9.79;99.99
72320;SHT30;60269;52.502;16.732;2022-09-12T23:59:49;9.59;99.99
